createdAt,value
2022-11-13T00:00:43.464Z,6.60
2022-11-13T00:03:31.314Z,6.60
2022-11-13T00:06:19.648Z,6.60
2022-11-13T00:09:06.353Z,6.60
2022-11-13T00:11:52.831Z,6.60
2022-11-13T00:14:40.191Z,6.50
2022-11-13T00:17:29.378Z,6.50
2022-11-13T00:20:16.453Z,6.50
2022-11-13T00:23:04.163Z,6.50
2022-11-13T00:25:51.102Z,6.40
2022-11-13T00:28:38.101Z,6.30
2022-11-13T00:31:25.116Z,6.40
2022-11-13T00:34:41.032Z,6.30
2022-11-13T00:37:20.171Z,6.40
2022-11-13T00:40:07.893Z,6.30
2022-11-13T00:42:54.563Z,6.30
2022-11-13T00:45:41.312Z,6.20
2022-11-13T00:48:28.293Z,6.20
2022-11-13T00:51:16.460Z,6.20
2022-11-13T00:54:03.357Z,6.10
2022-11-13T00:56:50.281Z,6.10
2022-11-13T00:59:36.708Z,6.00
2022-11-13T01:02:23.285Z,6.10
2022-11-13T01:05:10.253Z,6.00
2022-11-13T01:07:58.644Z,5.90
2022-11-13T01:10:52.968Z,5.90
2022-11-13T01:13:41.987Z,5.90
2022-11-13T01:16:29.718Z,5.90
2022-11-13T01:19:16.605Z,5.80
2022-11-13T01:22:03.550Z,5.90
2022-11-13T01:24:52.719Z,5.80
2022-11-13T01:27:40.061Z,5.90
2022-11-13T01:30:27.086Z,5.80
2022-11-13T01:33:13.632Z,5.80
2022-11-13T01:36:04.881Z,5.80
2022-11-13T01:38:52.162Z,5.80
2022-11-13T01:41:40.942Z,5.80
2022-11-13T01:44:29.049Z,5.70
2022-11-13T01:47:16.308Z,5.70
2022-11-13T01:50:03.723Z,5.70
2022-11-13T01:52:50.593Z,5.70
2022-11-13T01:55:37.665Z,5.80
2022-11-13T01:58:26.165Z,5.80
2022-11-13T02:01:13.531Z,5.70
2022-11-13T02:04:00.103Z,5.70
2022-11-13T02:06:49.551Z,5.60
2022-11-13T02:09:40.843Z,5.60
2022-11-13T02:12:35.254Z,5.60
2022-11-13T02:15:26.590Z,5.60
2022-11-13T02:18:13.818Z,5.70
2022-11-13T02:21:07.138Z,5.70
2022-11-13T02:24:01.419Z,5.60
2022-11-13T02:26:50.790Z,5.50
2022-11-13T02:29:38.359Z,5.40
2022-11-13T02:32:25.323Z,5.40
2022-11-13T02:35:12.886Z,5.40
2022-11-13T02:38:01.137Z,5.40
2022-11-13T02:40:48.211Z,5.40
2022-11-13T02:43:36.716Z,5.40
2022-11-13T02:46:23.498Z,5.20
2022-11-13T02:49:10.128Z,5.30
2022-11-13T02:51:57.340Z,5.20
2022-11-13T02:54:43.921Z,5.20
2022-11-13T02:57:30.504Z,5.30
2022-11-13T03:00:20.263Z,5.20
2022-11-13T03:03:06.710Z,5.10
2022-11-13T03:05:53.165Z,5.10
2022-11-13T03:08:39.989Z,5.10
2022-11-13T03:11:26.939Z,5.10
2022-11-13T03:14:14.170Z,5.10
2022-11-13T03:17:02.221Z,5.10
2022-11-13T03:19:49.098Z,5.20
2022-11-13T03:22:36.063Z,5.10
2022-11-13T03:25:22.814Z,5.10
2022-11-13T03:28:09.374Z,5.10
2022-11-13T03:30:56.439Z,5.10
2022-11-13T03:33:44.596Z,5.00
2022-11-13T03:36:31.538Z,5.00
2022-11-13T03:39:18.266Z,4.90
2022-11-13T03:42:05.123Z,4.80
2022-11-13T03:44:51.831Z,4.90
2022-11-13T03:47:38.477Z,4.90
2022-11-13T03:50:26.378Z,4.90
2022-11-13T03:53:13.145Z,4.90
2022-11-13T03:56:00.163Z,4.80
2022-11-13T03:58:49.594Z,4.80
2022-11-13T04:01:36.327Z,4.80
2022-11-13T04:04:23.575Z,4.90
2022-11-13T04:07:11.906Z,4.90
2022-11-13T04:09:58.500Z,4.70
2022-11-13T04:12:45.189Z,4.70
2022-11-13T04:15:32.103Z,4.60
2022-11-13T04:18:18.799Z,4.60
2022-11-13T04:21:07.106Z,4.60
2022-11-13T04:23:55.122Z,4.60
2022-11-13T04:26:41.829Z,4.60
2022-11-13T04:29:28.971Z,4.50
2022-11-13T04:32:15.537Z,4.40
2022-11-13T04:35:02.462Z,4.40
2022-11-13T04:37:48.956Z,4.30
2022-11-13T04:40:36.992Z,4.30
2022-11-13T04:43:22.922Z,4.40
2022-11-13T04:46:09.533Z,4.30
2022-11-13T04:48:55.890Z,4.40
2022-11-13T04:51:42.653Z,4.30
2022-11-13T04:54:29.427Z,4.40
2022-11-13T04:57:17.890Z,4.40
2022-11-13T05:00:06.612Z,4.30
2022-11-13T05:02:54.028Z,4.20
2022-11-13T05:05:40.477Z,4.20
2022-11-13T05:08:27.358Z,4.20
2022-11-13T05:11:14.603Z,4.20
2022-11-13T05:14:03.758Z,4.20
2022-11-13T05:16:51.819Z,4.20
2022-11-13T05:19:39.664Z,4.10
2022-11-13T05:22:26.533Z,4.10
2022-11-13T05:25:12.876Z,4.10
2022-11-13T05:27:59.927Z,4.00
2022-11-13T05:30:47.851Z,4.00
2022-11-13T05:33:35.207Z,4.00
2022-11-13T05:36:23.386Z,4.10
2022-11-13T05:39:09.926Z,4.20
2022-11-13T05:41:56.592Z,4.20
2022-11-13T05:44:43.125Z,4.30
2022-11-13T05:47:31.002Z,4.20
2022-11-13T05:50:18.112Z,4.10
2022-11-13T05:53:04.779Z,4.00
2022-11-13T05:55:51.333Z,4.00
2022-11-13T05:58:38.155Z,3.90
2022-11-13T06:01:27.268Z,3.90
2022-11-13T06:04:15.620Z,3.90
2022-11-13T06:07:04.243Z,3.90
2022-11-13T06:09:51.051Z,3.90
2022-11-13T06:12:37.574Z,3.90
2022-11-13T06:15:24.126Z,3.80
2022-11-13T06:18:10.809Z,3.80
2022-11-13T06:21:02.627Z,3.70
2022-11-13T06:23:49.957Z,3.60
2022-11-13T06:26:37.642Z,3.60
2022-11-13T06:29:24.395Z,3.70
2022-11-13T06:32:11.474Z,3.80
2022-11-13T06:34:57.954Z,3.80
2022-11-13T06:37:45.903Z,3.90
2022-11-13T06:40:32.664Z,3.80
2022-11-13T06:43:19.070Z,3.70
2022-11-13T06:46:07.352Z,3.70
2022-11-13T06:48:54.626Z,3.70
2022-11-13T06:51:41.572Z,3.80
2022-11-13T06:54:29.698Z,3.70
2022-11-13T06:57:16.573Z,3.70
2022-11-13T07:00:03.678Z,3.70
2022-11-13T07:02:51.108Z,3.90
2022-11-13T07:05:38.436Z,3.90
2022-11-13T07:08:25.451Z,4.00
2022-11-13T07:11:16.754Z,4.10
2022-11-13T07:14:03.550Z,4.10
2022-11-13T07:17:08.784Z,4.20
2022-11-13T07:19:56.565Z,4.30
2022-11-13T07:22:43.456Z,4.20
2022-11-13T07:25:30.407Z,4.20
2022-11-13T07:28:18.918Z,4.20
2022-11-13T07:31:06.634Z,4.10
2022-11-13T07:33:53.095Z,4.10
2022-11-13T07:36:39.511Z,4.10
2022-11-13T07:39:26.075Z,4.30
2022-11-13T07:42:13.215Z,4.40
2022-11-13T07:45:01.365Z,4.50
2022-11-13T07:47:48.215Z,4.60
2022-11-13T07:50:37.313Z,4.70
2022-11-13T07:53:24.491Z,4.80
2022-11-13T07:56:11.447Z,4.80
2022-11-13T07:58:58.148Z,4.80
2022-11-13T08:01:46.213Z,4.90
2022-11-13T08:04:33.008Z,4.90
2022-11-13T08:07:20.003Z,4.90
2022-11-13T08:10:07.848Z,5.00
2022-11-13T08:13:01.089Z,5.10
2022-11-13T08:15:47.768Z,5.30
2022-11-13T08:18:35.745Z,5.40
2022-11-13T08:21:22.864Z,5.50
2022-11-13T08:24:10.768Z,5.60
2022-11-13T08:26:58.089Z,5.60
2022-11-13T08:29:45.571Z,5.60
2022-11-13T08:32:32.466Z,5.70
2022-11-13T08:35:25.256Z,5.80
2022-11-13T08:38:15.677Z,5.90
2022-11-13T08:41:08.591Z,5.90
2022-11-13T08:43:56.309Z,6.00
2022-11-13T08:46:42.687Z,6.10
2022-11-13T08:49:29.290Z,6.30
2022-11-13T08:52:17.746Z,6.30
2022-11-13T08:55:04.587Z,6.40
2022-11-13T08:57:51.330Z,6.50
2022-11-13T09:00:38.331Z,6.60
2022-11-13T09:03:25.131Z,6.80
2022-11-13T09:06:11.822Z,6.90
2022-11-13T09:09:00.047Z,7.00
2022-11-13T09:11:47.045Z,7.10
2022-11-13T09:14:33.580Z,7.20
2022-11-13T09:17:20.664Z,7.30
2022-11-13T09:20:13.542Z,7.50
2022-11-13T09:23:02.584Z,7.60
2022-11-13T09:25:51.119Z,7.70
2022-11-13T09:28:37.922Z,7.80
2022-11-13T09:31:24.879Z,7.90
2022-11-13T09:34:11.793Z,8.00
2022-11-13T09:36:58.376Z,8.10
2022-11-13T09:39:45.260Z,8.20
2022-11-13T09:42:34.393Z,8.20
2022-11-13T09:45:21.155Z,8.30
2022-11-13T09:48:21.663Z,8.40
2022-11-13T09:51:14.023Z,8.50
2022-11-13T09:54:05.664Z,8.50
2022-11-13T09:57:07.025Z,8.60
2022-11-13T10:00:00.858Z,8.80
2022-11-13T10:03:09.828Z,8.80
2022-11-13T10:06:04.394Z,8.80
2022-11-13T10:08:57.250Z,8.90
2022-11-13T10:11:49.972Z,9.00
2022-11-13T10:14:42.876Z,9.20
2022-11-13T10:17:36.741Z,9.30
2022-11-13T10:20:26.956Z,9.40
2022-11-13T10:23:20.035Z,9.40
2022-11-13T10:26:15.997Z,9.50
2022-11-13T10:29:11.625Z,9.70
2022-11-13T10:31:59.503Z,9.90
2022-11-13T10:35:02.008Z,10.10
2022-11-13T10:38:02.120Z,10.30
2022-11-13T10:40:53.563Z,10.30
2022-11-13T10:43:56.586Z,10.40
2022-11-13T10:46:43.466Z,10.50
2022-11-13T10:49:30.724Z,10.60
2022-11-13T10:52:21.647Z,10.80
2022-11-13T10:55:21.892Z,10.90
2022-11-13T10:58:16.307Z,11.00
2022-11-13T11:01:03.003Z,11.10
2022-11-13T11:03:51.095Z,11.20
2022-11-13T11:09:49.734Z,11.20
2022-11-13T11:12:36.862Z,11.30
2022-11-13T11:15:27.916Z,11.50
2022-11-13T11:18:24.905Z,11.50
2022-11-13T11:21:17.416Z,11.60
2022-11-13T11:24:10.686Z,11.70
2022-11-13T11:27:05.415Z,11.80
2022-11-13T11:30:02.433Z,11.60
2022-11-13T11:32:57.327Z,11.80
2022-11-13T11:35:47.110Z,11.90
2022-11-13T11:38:41.482Z,12.10
2022-11-13T11:41:35.524Z,12.10
2022-11-13T11:44:29.972Z,12.10
2022-11-13T11:47:19.073Z,12.10
2022-11-13T11:50:11.913Z,12.30
2022-11-13T11:53:05.210Z,12.50
2022-11-13T11:56:18.420Z,12.70
2022-11-13T11:59:32.379Z,12.60
2022-11-13T12:02:57.242Z,12.50
2022-11-13T12:05:51.116Z,12.50
2022-11-13T12:08:47.036Z,12.60
2022-11-13T12:11:36.131Z,13.00
2022-11-13T12:14:34.143Z,13.20
2022-11-13T12:17:36.517Z,13.30
2022-11-13T12:20:36.279Z,13.30
2022-11-13T12:23:33.598Z,13.50
2022-11-13T12:26:27.351Z,13.50
2022-11-13T12:29:38.842Z,13.60
2022-11-13T12:32:40.259Z,13.70
2022-11-13T12:35:30.366Z,13.80
2022-11-13T12:38:29.074Z,13.80
2022-11-13T12:41:24.518Z,13.90
2022-11-13T12:44:24.196Z,13.80
2022-11-13T12:47:11.745Z,14.00
2022-11-13T12:50:03.294Z,14.00
2022-11-13T12:53:04.038Z,14.00
2022-11-13T12:56:00.250Z,14.00
2022-11-13T12:59:23.900Z,13.90
2022-11-13T13:02:21.303Z,14.00
2022-11-13T13:05:19.812Z,14.10
2022-11-13T13:08:27.288Z,14.10
2022-11-13T13:11:21.094Z,14.20
2022-11-13T13:14:23.870Z,14.10
2022-11-13T13:17:20.399Z,14.20
2022-11-13T13:20:28.906Z,14.30
2022-11-13T13:23:28.514Z,14.50
2022-11-13T13:26:19.753Z,14.50
2022-11-13T13:29:19.008Z,14.50
2022-11-13T13:32:20.694Z,14.50
2022-11-13T13:35:16.443Z,14.50
2022-11-13T13:38:10.388Z,14.50
2022-11-13T13:41:16.679Z,14.40
2022-11-13T13:44:23.222Z,14.50
2022-11-13T13:47:16.917Z,14.50
2022-11-13T13:50:08.302Z,14.50
2022-11-13T13:52:58.048Z,14.60
2022-11-13T13:55:49.161Z,14.50
2022-11-13T13:58:39.203Z,14.50
2022-11-13T14:01:32.295Z,14.30
2022-11-13T14:04:21.346Z,14.40
2022-11-13T14:07:21.692Z,14.40
2022-11-13T14:10:15.344Z,14.50
2022-11-13T14:13:01.894Z,14.40
2022-11-13T14:15:50.155Z,14.50
2022-11-13T14:18:37.586Z,14.30
2022-11-13T14:21:25.089Z,14.40
2022-11-13T14:24:22.258Z,14.40
2022-11-13T14:27:16.426Z,14.60
2022-11-13T14:30:07.241Z,14.50
2022-11-13T14:32:55.944Z,14.40
2022-11-13T14:35:42.570Z,14.40
2022-11-13T14:38:33.009Z,14.40
2022-11-13T14:41:25.467Z,14.30
2022-11-13T14:44:12.726Z,14.20
2022-11-13T14:47:04.578Z,14.00
2022-11-13T14:49:52.582Z,14.20
2022-11-13T14:52:39.122Z,14.20
2022-11-13T14:55:28.515Z,14.10
2022-11-13T14:58:15.700Z,13.90
2022-11-13T15:01:16.361Z,13.80
2022-11-13T15:04:03.079Z,13.70
2022-11-13T15:06:55.578Z,13.60
2022-11-13T15:09:42.284Z,13.40
2022-11-13T15:12:29.751Z,13.40
2022-11-13T15:15:19.018Z,13.20
2022-11-13T15:18:07.398Z,13.20
2022-11-13T15:20:54.734Z,13.00
2022-11-13T15:23:43.077Z,12.70
2022-11-13T15:26:29.786Z,12.60
2022-11-13T15:29:16.765Z,12.80
2022-11-13T15:32:03.645Z,12.80
2022-11-13T15:34:50.474Z,12.70
2022-11-13T15:37:37.175Z,12.60
2022-11-13T15:40:25.611Z,12.70
2022-11-13T15:43:19.139Z,12.50
2022-11-13T15:46:11.182Z,12.30
2022-11-13T15:48:57.697Z,11.90
2022-11-13T15:51:46.423Z,11.70
2022-11-13T15:54:35.358Z,11.60
2022-11-13T15:57:25.452Z,11.50
2022-11-13T16:00:15.976Z,11.50
2022-11-13T16:03:04.696Z,11.10
2022-11-13T16:05:51.561Z,10.90
2022-11-13T16:08:38.146Z,10.90
2022-11-13T16:11:25.153Z,10.80
2022-11-13T16:14:13.293Z,10.70
2022-11-13T16:17:00.150Z,10.40
2022-11-13T16:19:49.491Z,10.20
2022-11-13T16:22:36.029Z,10.10
2022-11-13T16:25:23.745Z,9.90
2022-11-13T16:28:16.183Z,9.70
2022-11-13T16:31:04.461Z,9.60
2022-11-13T16:33:51.491Z,9.50
2022-11-13T16:36:38.559Z,9.40
2022-11-13T16:39:25.083Z,9.30
2022-11-13T16:42:12.191Z,9.60
2022-11-13T16:44:59.022Z,9.60
2022-11-13T16:47:47.414Z,9.50
2022-11-13T16:50:36.905Z,9.50
2022-11-13T16:53:23.360Z,9.20
2022-11-13T16:56:15.111Z,9.00
2022-11-13T16:59:01.997Z,8.90
2022-11-13T17:01:48.507Z,8.80
2022-11-13T17:04:36.801Z,8.80
2022-11-13T17:07:23.950Z,8.70
2022-11-13T17:13:20.810Z,8.30
2022-11-13T17:16:07.674Z,8.30
2022-11-13T17:18:54.375Z,8.20
2022-11-13T17:21:44.442Z,8.10
2022-11-13T17:24:31.574Z,8.00
2022-11-13T17:27:18.733Z,8.00
2022-11-13T17:30:06.423Z,7.90
2022-11-13T17:32:53.356Z,8.00
2022-11-13T17:35:39.908Z,7.80
2022-11-13T17:38:28.825Z,7.60
2022-11-13T17:41:17.134Z,7.60
2022-11-13T17:44:04.030Z,7.60
2022-11-13T17:46:52.040Z,7.60
2022-11-13T17:49:38.716Z,7.80
2022-11-13T17:52:25.384Z,7.80
2022-11-13T17:55:14.044Z,8.00
2022-11-13T17:58:01.539Z,8.20
2022-11-13T18:00:48.313Z,8.50
2022-11-13T18:03:35.108Z,8.70
2022-11-13T18:06:22.171Z,8.70
2022-11-13T18:09:08.953Z,8.70
2022-11-13T18:11:57.836Z,8.80
2022-11-13T18:14:44.343Z,8.70
2022-11-13T18:17:30.834Z,8.80
2022-11-13T18:20:17.889Z,8.80
2022-11-13T18:23:04.749Z,8.70
2022-11-13T18:25:52.733Z,8.70
2022-11-13T18:28:42.213Z,8.70
2022-11-13T18:31:29.570Z,8.60
2022-11-13T18:34:17.755Z,8.30
2022-11-13T18:37:04.359Z,8.10
2022-11-13T18:39:51.255Z,7.90
2022-11-13T18:42:38.136Z,7.80
2022-11-13T18:45:26.126Z,7.80
2022-11-13T18:48:12.927Z,7.80
2022-11-13T18:51:01.231Z,8.10
2022-11-13T18:53:49.426Z,8.30
2022-11-13T18:56:35.911Z,8.40
2022-11-13T18:59:22.958Z,8.50
2022-11-13T19:02:12.892Z,8.50
2022-11-13T19:04:59.836Z,8.50
2022-11-13T19:07:46.561Z,8.50
2022-11-13T19:10:35.198Z,8.50
2022-11-13T19:13:21.961Z,8.30
2022-11-13T19:16:11.083Z,8.30
2022-11-13T19:19:01.034Z,8.30
2022-11-13T19:21:48.418Z,8.40
2022-11-13T19:24:35.351Z,8.40
2022-11-13T19:27:21.790Z,8.50
2022-11-13T19:30:09.096Z,8.50
2022-11-13T19:32:55.592Z,8.50
2022-11-13T19:35:43.536Z,8.60
2022-11-13T19:38:30.592Z,8.50
2022-11-13T19:41:17.818Z,8.50
2022-11-13T19:44:06.529Z,8.50
2022-11-13T19:46:53.736Z,8.50
2022-11-13T19:49:40.486Z,8.50
2022-11-13T19:52:28.904Z,8.50
2022-11-13T19:55:15.857Z,8.50
2022-11-13T19:58:02.897Z,8.40
2022-11-13T20:00:50.070Z,8.40
2022-11-13T20:03:37.640Z,8.40
2022-11-13T20:06:24.888Z,8.30
2022-11-13T20:09:14.130Z,8.30
2022-11-13T20:12:01.163Z,8.30
2022-11-13T20:14:48.937Z,8.20
2022-11-13T20:17:35.538Z,8.20
2022-11-13T20:20:22.169Z,8.20
2022-11-13T20:23:08.817Z,8.10
2022-11-13T20:25:58.158Z,8.00
2022-11-13T20:28:44.857Z,7.90
2022-11-13T20:31:31.626Z,7.80
2022-11-13T20:34:18.404Z,7.90
2022-11-13T20:37:04.954Z,7.80
2022-11-13T20:39:51.992Z,7.80
2022-11-13T20:42:39.858Z,7.70
2022-11-13T20:45:27.559Z,7.70
2022-11-13T20:48:14.167Z,7.70
2022-11-13T20:51:06.905Z,7.70
2022-11-13T20:53:54.862Z,7.70
2022-11-13T20:56:41.718Z,7.80
2022-11-13T20:59:29.786Z,7.80
2022-11-13T21:02:16.717Z,7.70
2022-11-13T21:05:03.385Z,7.40
2022-11-13T21:07:49.898Z,7.30
2022-11-13T21:10:36.400Z,7.10
2022-11-13T21:13:23.122Z,7.00
2022-11-13T21:16:12.103Z,6.80
2022-11-13T21:19:00.637Z,6.90
2022-11-13T21:21:47.155Z,7.10
2022-11-13T21:24:33.707Z,7.10
2022-11-13T21:27:20.259Z,7.10
2022-11-13T21:30:08.120Z,7.10
2022-11-13T21:32:56.074Z,7.00
2022-11-13T21:35:42.769Z,7.00
2022-11-13T21:38:29.690Z,7.00
2022-11-13T21:41:22.473Z,7.00
2022-11-13T21:44:10.812Z,6.90
2022-11-13T21:46:57.637Z,6.80
2022-11-13T21:49:45.506Z,6.70
2022-11-13T21:52:32.757Z,6.70
2022-11-13T21:55:19.467Z,6.80
2022-11-13T21:58:06.054Z,6.80
2022-11-13T22:00:52.955Z,6.80
2022-11-13T22:03:39.744Z,6.70
2022-11-13T22:06:28.777Z,6.70
2022-11-13T22:09:17.253Z,6.60
2022-11-13T22:12:04.969Z,6.60
2022-11-13T22:14:51.904Z,6.50
2022-11-13T22:17:38.950Z,6.60
2022-11-13T22:20:25.808Z,6.60
2022-11-13T22:23:13.979Z,6.40
2022-11-13T22:26:03.396Z,6.20
2022-11-13T22:28:50.869Z,6.00
2022-11-13T22:31:38.146Z,5.90
2022-11-13T22:34:24.772Z,5.80
2022-11-13T22:37:11.433Z,5.70
2022-11-13T22:39:59.536Z,5.80
2022-11-13T22:42:48.323Z,5.90
2022-11-13T22:45:35.705Z,5.80
2022-11-13T22:48:22.103Z,5.70
2022-11-13T22:51:11.706Z,5.80
2022-11-13T22:53:59.855Z,5.60
2022-11-13T22:56:48.221Z,5.40
2022-11-13T22:59:34.838Z,5.20
2022-11-13T23:02:21.548Z,5.10
2022-11-13T23:05:08.636Z,5.10
2022-11-13T23:07:55.390Z,5.00
2022-11-13T23:10:41.907Z,4.90
2022-11-13T23:13:29.918Z,4.80
2022-11-13T23:16:17.548Z,4.70
2022-11-13T23:19:04.688Z,4.70
2022-11-13T23:21:51.672Z,4.70
2022-11-13T23:24:38.233Z,4.60
2022-11-13T23:27:24.773Z,4.60
2022-11-13T23:30:14.327Z,4.60
2022-11-13T23:33:01.346Z,4.50
2022-11-13T23:35:48.351Z,4.50
2022-11-13T23:38:35.381Z,4.30
2022-11-13T23:41:21.984Z,4.40
2022-11-13T23:44:09.749Z,4.50
2022-11-13T23:46:57.909Z,4.30
2022-11-13T23:49:44.782Z,4.30
2022-11-13T23:52:31.439Z,4.30
2022-11-13T23:55:19.352Z,4.20
2022-11-13T23:58:08.100Z,4.20
